createdAt,value
2023-05-19T00:00:30.901Z,11.6
2023-05-19T00:01:34.217Z,11.6
2023-05-19T00:02:36.680Z,11.6
2023-05-19T00:03:39.359Z,11.6
2023-05-19T00:04:41.983Z,11.6
2023-05-19T00:05:44.407Z,11.6
2023-05-19T00:06:46.980Z,11.6
2023-05-19T00:07:49.428Z,11.6
2023-05-19T00:08:51.922Z,11.6
2023-05-19T00:09:54.362Z,11.6
2023-05-19T00:10:56.799Z,11.6
2023-05-19T00:11:59.244Z,11.6
2023-05-19T00:13:01.715Z,11.6
2023-05-19T00:14:04.178Z,11.6
2023-05-19T00:15:06.642Z,11.6
2023-05-19T00:16:09.147Z,11.6
2023-05-19T00:17:11.713Z,11.5
2023-05-19T00:18:14.336Z,11.5
2023-05-19T00:19:17.023Z,11.5
2023-05-19T00:20:19.779Z,11.5
2023-05-19T00:21:22.260Z,11.5
2023-05-19T00:22:24.675Z,11.5
2023-05-19T00:23:27.109Z,11.5
2023-05-19T00:24:29.563Z,11.5
2023-05-19T00:25:32.016Z,11.5
2023-05-19T00:26:34.479Z,11.5
2023-05-19T00:27:36.942Z,11.5
2023-05-19T00:28:39.422Z,11.5
2023-05-19T00:29:41.828Z,11.5
2023-05-19T00:30:44.309Z,11.5
2023-05-19T00:31:46.826Z,11.5
2023-05-19T00:32:49.336Z,11.5
2023-05-19T00:33:51.942Z,11.5
2023-05-19T00:34:54.425Z,11.5
2023-05-19T00:35:56.892Z,11.5
2023-05-19T00:36:59.352Z,11.5
2023-05-19T00:38:01.769Z,11.5
2023-05-19T00:39:04.261Z,11.5
2023-05-19T00:40:06.755Z,11.5
2023-05-19T00:41:09.190Z,11.5
2023-05-19T00:42:11.611Z,11.5
2023-05-19T00:43:14.058Z,11.5
2023-05-19T00:44:16.522Z,11.5
2023-05-19T00:45:18.927Z,11.5
2023-05-19T00:46:21.500Z,11.5
2023-05-19T00:47:24.215Z,11.5
2023-05-19T00:48:26.846Z,11.5
2023-05-19T00:49:29.312Z,11.5
2023-05-19T00:50:31.888Z,11.5
2023-05-19T00:51:34.928Z,11.5
2023-05-19T00:52:37.355Z,11.5
2023-05-19T00:53:39.776Z,11.5
2023-05-19T00:54:42.225Z,11.5
2023-05-19T00:55:44.641Z,11.5
2023-05-19T00:56:47.153Z,11.5
2023-05-19T00:57:49.587Z,11.5
2023-05-19T00:58:52.093Z,11.5
2023-05-19T00:59:54.580Z,11.5
2023-05-19T01:00:57.049Z,11.5
2023-05-19T01:01:59.616Z,11.5
2023-05-19T01:03:02.410Z,11.5
2023-05-19T01:04:05.297Z,11.5
2023-05-19T01:05:08.009Z,11.5
2023-05-19T01:06:10.443Z,11.5
2023-05-19T01:07:12.871Z,11.5
2023-05-19T01:08:15.278Z,11.5
2023-05-19T01:09:17.706Z,11.5
2023-05-19T01:10:20.176Z,11.5
2023-05-19T01:11:22.606Z,11.5
2023-05-19T01:12:25.036Z,11.5
2023-05-19T01:13:27.544Z,11.4
2023-05-19T01:14:30.006Z,11.4
2023-05-19T01:15:32.449Z,11.4
2023-05-19T01:16:34.934Z,11.4
2023-05-19T01:17:37.648Z,11.4
2023-05-19T01:18:40.331Z,11.4
2023-05-19T01:19:42.858Z,11.4
2023-05-19T01:20:45.333Z,11.4
2023-05-19T01:21:47.760Z,11.4
2023-05-19T01:22:50.201Z,11.4
2023-05-19T01:23:52.630Z,11.4
2023-05-19T01:24:55.059Z,11.4
2023-05-19T01:25:57.496Z,11.4
2023-05-19T01:26:59.930Z,11.4
2023-05-19T01:28:02.393Z,11.4
2023-05-19T01:29:04.907Z,11.4
2023-05-19T01:30:07.386Z,11.4
2023-05-19T01:31:09.869Z,11.4
2023-05-19T01:32:12.440Z,11.5
2023-05-19T01:33:15.162Z,11.5
2023-05-19T01:34:17.632Z,11.5
2023-05-19T01:35:20.079Z,11.5
2023-05-19T01:36:22.536Z,11.5
2023-05-19T01:37:24.972Z,11.5
2023-05-19T01:38:27.469Z,11.5
2023-05-19T01:39:30.003Z,11.5
2023-05-19T01:40:32.653Z,11.5
2023-05-19T01:41:35.995Z,11.5
2023-05-19T01:42:38.423Z,11.5
2023-05-19T01:43:40.896Z,11.5
2023-05-19T01:44:43.328Z,11.5
2023-05-19T01:45:45.974Z,11.4
2023-05-19T01:46:48.531Z,11.4
2023-05-19T01:47:50.998Z,11.4
2023-05-19T01:48:53.604Z,11.4
2023-05-19T01:49:56.082Z,11.4
2023-05-19T01:50:58.523Z,11.4
2023-05-19T01:52:00.993Z,11.4
2023-05-19T01:53:03.504Z,11.4
2023-05-19T01:54:06.023Z,11.4
2023-05-19T01:55:08.624Z,11.4
2023-05-19T01:56:11.024Z,11.4
2023-05-19T01:57:13.517Z,11.4
2023-05-19T01:58:15.932Z,11.4
2023-05-19T01:59:18.338Z,11.4
2023-05-19T02:00:21.392Z,11.4
2023-05-19T02:01:23.923Z,11.3
2023-05-19T02:02:26.449Z,11.3
2023-05-19T02:03:29.054Z,11.3
2023-05-19T02:04:31.501Z,11.3
2023-05-19T02:05:34.314Z,11.3
2023-05-19T02:06:36.746Z,11.3
2023-05-19T02:07:39.317Z,11.3
2023-05-19T02:08:41.745Z,11.3
2023-05-19T02:09:44.179Z,11.3
2023-05-19T02:10:46.703Z,11.3
2023-05-19T02:11:49.134Z,11.3
2023-05-19T02:12:51.629Z,11.3
2023-05-19T02:13:54.103Z,11.2
2023-05-19T02:14:56.511Z,11.2
2023-05-19T02:15:58.977Z,11.2
2023-05-19T02:17:01.480Z,11.2
2023-05-19T02:18:03.958Z,11.2
2023-05-19T02:19:06.518Z,11.2
2023-05-19T02:20:09.216Z,11.2
2023-05-19T02:21:11.737Z,11.2
2023-05-19T02:22:14.152Z,11.2
2023-05-19T02:23:16.584Z,11.2
2023-05-19T02:24:18.999Z,11.1
2023-05-19T02:25:21.432Z,11.1
2023-05-19T02:26:23.944Z,11.1
2023-05-19T02:27:26.426Z,11.1
2023-05-19T02:28:28.902Z,11.1
2023-05-19T02:29:31.396Z,11.1
2023-05-19T02:30:33.956Z,11.1
2023-05-19T02:31:36.938Z,11.1
2023-05-19T02:32:39.593Z,11.1
2023-05-19T02:33:42.374Z,11.1
2023-05-19T02:34:44.790Z,11
2023-05-19T02:35:47.238Z,11
2023-05-19T02:36:49.726Z,11
2023-05-19T02:37:52.306Z,10.9
2023-05-19T02:38:54.810Z,10.9
2023-05-19T02:39:57.254Z,10.9
2023-05-19T02:40:59.706Z,10.9
2023-05-19T02:42:02.152Z,10.8
2023-05-19T02:43:04.560Z,10.8
2023-05-19T02:44:07.143Z,10.8
2023-05-19T02:45:09.573Z,10.8
2023-05-19T02:46:12.062Z,10.8
2023-05-19T02:47:14.643Z,10.7
2023-05-19T02:48:17.054Z,10.8
2023-05-19T02:49:19.526Z,10.8
2023-05-19T02:50:21.916Z,10.8
2023-05-19T02:51:24.374Z,10.7
2023-05-19T02:52:27.001Z,10.7
2023-05-19T02:53:29.430Z,10.7
2023-05-19T02:54:31.873Z,10.8
2023-05-19T02:55:34.287Z,10.7
2023-05-19T02:56:36.788Z,10.8
2023-05-19T02:57:39.210Z,10.8
2023-05-19T02:58:41.652Z,10.8
2023-05-19T02:59:44.088Z,10.8
2023-05-19T03:00:46.548Z,10.8
2023-05-19T03:01:48.998Z,10.8
2023-05-19T03:02:51.730Z,10.8
2023-05-19T03:03:54.450Z,10.8
2023-05-19T03:04:57.163Z,10.8
2023-05-19T03:05:59.599Z,10.8
2023-05-19T03:07:02.058Z,10.8
2023-05-19T03:08:04.612Z,10.8
2023-05-19T03:09:07.024Z,10.8
2023-05-19T03:10:09.472Z,10.8
2023-05-19T03:11:11.941Z,10.8
2023-05-19T03:12:14.436Z,10.8
2023-05-19T03:13:16.941Z,10.8
2023-05-19T03:14:19.513Z,10.8
2023-05-19T03:15:22.032Z,10.8
2023-05-19T03:16:24.511Z,10.8
2023-05-19T03:17:27.253Z,10.7
2023-05-19T03:18:30.001Z,10.7
2023-05-19T03:19:32.575Z,10.7
2023-05-19T03:20:35.011Z,10.7
2023-05-19T03:21:37.477Z,10.7
2023-05-19T03:22:40.027Z,10.7
2023-05-19T03:23:42.550Z,10.7
2023-05-19T03:24:44.957Z,10.7
2023-05-19T03:25:47.408Z,10.7
2023-05-19T03:26:49.863Z,10.7
2023-05-19T03:27:52.329Z,10.6
2023-05-19T03:28:54.760Z,10.6
2023-05-19T03:29:57.186Z,10.6
2023-05-19T03:30:59.627Z,10.6
2023-05-19T03:32:02.130Z,10.6
2023-05-19T03:33:04.712Z,10.6
2023-05-19T03:34:07.358Z,10.6
2023-05-19T03:35:09.843Z,10.6
2023-05-19T03:36:12.397Z,10.6
2023-05-19T03:37:14.867Z,10.5
2023-05-19T03:38:17.449Z,10.5
2023-05-19T03:39:20.008Z,10.5
2023-05-19T03:40:22.441Z,10.5
2023-05-19T03:41:24.924Z,10.5
2023-05-19T03:42:27.370Z,10.5
2023-05-19T03:43:29.835Z,10.5
2023-05-19T03:44:32.309Z,10.5
2023-05-19T03:45:34.827Z,10.5
2023-05-19T03:46:37.417Z,10.5
2023-05-19T03:47:39.926Z,10.4
2023-05-19T03:48:42.461Z,10.4
2023-05-19T03:49:44.946Z,10.4
2023-05-19T03:50:47.367Z,10.5
2023-05-19T03:51:49.878Z,10.4
2023-05-19T03:52:52.428Z,10.5
2023-05-19T03:53:55.327Z,10.5
2023-05-19T03:54:57.936Z,10.5
2023-05-19T03:56:00.404Z,10.5
2023-05-19T03:57:02.901Z,10.5
2023-05-19T03:58:05.399Z,10.5
2023-05-19T03:59:07.834Z,10.5
2023-05-19T04:00:10.296Z,10.5
2023-05-19T04:01:12.741Z,10.5
2023-05-19T04:02:16.537Z,10.4
2023-05-19T04:03:19.594Z,10.4
2023-05-19T04:04:23.015Z,10.4
2023-05-19T04:05:25.723Z,10.4
2023-05-19T04:06:28.222Z,10.4
2023-05-19T04:07:30.700Z,10.4
2023-05-19T04:08:33.117Z,10.4
2023-05-19T04:09:35.660Z,10.4
2023-05-19T04:10:38.206Z,10.4
2023-05-19T04:11:40.625Z,10.4
2023-05-19T04:12:43.091Z,10.4
2023-05-19T04:13:45.547Z,10.4
2023-05-19T04:14:48.002Z,10.3
2023-05-19T04:15:50.568Z,10.3
2023-05-19T04:16:53.344Z,10.3
2023-05-19T04:17:55.801Z,10.3
2023-05-19T04:18:58.451Z,10.3
2023-05-19T04:20:01.028Z,10.3
2023-05-19T04:21:03.699Z,10.3
2023-05-19T04:22:06.117Z,10.3
2023-05-19T04:23:08.583Z,10.3
2023-05-19T04:24:11.048Z,10.3
2023-05-19T04:25:13.495Z,10.3
2023-05-19T04:26:16.036Z,10.3
2023-05-19T04:27:18.500Z,10.3
2023-05-19T04:28:20.925Z,10.3
2023-05-19T04:29:23.323Z,10.4
2023-05-19T04:30:25.799Z,10.4
2023-05-19T04:31:28.327Z,10.4
2023-05-19T04:32:30.876Z,10.4
2023-05-19T04:33:33.385Z,10.4
2023-05-19T04:34:35.855Z,10.4
2023-05-19T04:35:38.328Z,10.4
2023-05-19T04:36:40.748Z,10.4
2023-05-19T04:37:43.141Z,10.4
2023-05-19T04:38:45.578Z,10.4
2023-05-19T04:39:47.965Z,10.4
2023-05-19T04:40:50.547Z,10.4
2023-05-19T04:41:53.106Z,10.4
2023-05-19T04:42:55.604Z,10.4
2023-05-19T04:43:58.100Z,10.4
2023-05-19T04:45:00.565Z,10.4
2023-05-19T04:46:02.980Z,10.4
2023-05-19T04:47:05.434Z,10.4
2023-05-19T04:48:08.052Z,10.4
2023-05-19T04:49:10.656Z,10.4
2023-05-19T04:50:13.069Z,10.4
2023-05-19T04:51:15.524Z,10.4
2023-05-19T04:52:17.990Z,10.4
2023-05-19T04:53:20.460Z,10.4
2023-05-19T04:54:22.960Z,10.5
2023-05-19T04:55:25.425Z,10.5
2023-05-19T04:56:27.873Z,10.5
2023-05-19T04:57:30.348Z,10.5
2023-05-19T04:58:34.252Z,10.5
2023-05-19T04:59:36.614Z,10.5
2023-05-19T05:00:39.065Z,10.5
2023-05-19T05:01:41.585Z,10.5
2023-05-19T05:02:44.243Z,10.6
2023-05-19T05:03:46.931Z,10.6
2023-05-19T05:04:49.467Z,10.6
2023-05-19T05:05:53.412Z,10.6
2023-05-19T05:06:55.733Z,10.6
2023-05-19T05:07:58.192Z,10.7
2023-05-19T05:09:00.674Z,10.7
2023-05-19T05:10:03.197Z,10.7
2023-05-19T05:11:06.586Z,10.7
2023-05-19T05:12:09.089Z,10.7
2023-05-19T05:13:11.889Z,10.7
2023-05-19T05:14:14.384Z,10.7
2023-05-19T05:15:16.918Z,10.8
2023-05-19T05:16:20.924Z,10.8
2023-05-19T05:17:23.416Z,10.7
2023-05-19T05:18:25.923Z,10.8
2023-05-19T05:19:28.602Z,10.7
2023-05-19T05:20:31.528Z,10.8
2023-05-19T05:21:34.571Z,10.8
2023-05-19T05:22:37.047Z,10.8
2023-05-19T05:23:39.452Z,10.8
2023-05-19T05:24:41.829Z,10.8
2023-05-19T05:25:44.282Z,10.8
2023-05-19T05:26:46.701Z,10.8
2023-05-19T05:27:49.156Z,10.7
2023-05-19T05:28:51.661Z,10.7
2023-05-19T05:29:54.088Z,10.7
2023-05-19T05:30:56.551Z,10.7
2023-05-19T05:31:59.009Z,10.7
2023-05-19T05:33:01.658Z,10.7
2023-05-19T05:34:04.406Z,10.7
2023-05-19T05:35:06.837Z,10.7
2023-05-19T05:36:09.290Z,10.7
2023-05-19T05:37:13.199Z,10.7
2023-05-19T05:38:17.618Z,10.7
2023-05-19T05:39:20.049Z,10.7
2023-05-19T05:40:22.542Z,10.7
2023-05-19T05:41:24.998Z,10.7
2023-05-19T05:42:29.584Z,10.7
2023-05-19T05:43:32.221Z,10.7
2023-05-19T05:44:34.799Z,10.7
2023-05-19T05:45:37.342Z,10.8
2023-05-19T05:46:39.958Z,10.8
2023-05-19T05:47:42.414Z,10.8
2023-05-19T05:48:44.975Z,10.8
2023-05-19T05:49:47.435Z,10.8
2023-05-19T05:50:49.891Z,10.8
2023-05-19T05:52:04.755Z,10.8
2023-05-19T05:53:09.520Z,10.8
2023-05-19T05:54:11.998Z,10.9
2023-05-19T05:55:14.444Z,10.9
2023-05-19T05:56:16.917Z,11
2023-05-19T05:57:19.358Z,11
2023-05-19T05:58:21.987Z,11.1
2023-05-19T05:59:24.429Z,11.1
2023-05-19T06:00:26.884Z,11.2
2023-05-19T06:01:29.387Z,11.3
2023-05-19T06:02:32.074Z,11.3
2023-05-19T06:03:34.854Z,11.3
2023-05-19T06:04:37.430Z,11.4
2023-05-19T06:05:39.895Z,11.4
2023-05-19T06:06:42.425Z,11.4
2023-05-19T06:07:44.886Z,11.4
2023-05-19T06:08:47.335Z,11.4
2023-05-19T06:09:49.777Z,11.3
2023-05-19T06:10:52.278Z,11.3
2023-05-19T06:11:54.724Z,11.3
2023-05-19T06:12:57.164Z,11.2
2023-05-19T06:13:59.576Z,11.2
2023-05-19T06:15:02.211Z,11.2
2023-05-19T06:16:04.772Z,11.2
2023-05-19T06:17:07.364Z,11.2
2023-05-19T06:18:09.886Z,11.2
2023-05-19T06:19:12.468Z,11.2
2023-05-19T06:20:15.097Z,11.1
2023-05-19T06:21:17.557Z,11.1
2023-05-19T06:22:20.033Z,11.1
2023-05-19T06:23:22.467Z,11.1
2023-05-19T06:24:24.921Z,11.1
2023-05-19T06:25:27.432Z,11.1
2023-05-19T06:26:29.860Z,11.1
2023-05-19T06:27:34.615Z,11.1
2023-05-19T06:28:37.369Z,11.1
2023-05-19T06:29:39.812Z,11.1
2023-05-19T06:30:42.305Z,11.2
2023-05-19T06:31:44.867Z,11.2
2023-05-19T06:32:47.482Z,11.2
2023-05-19T06:33:50.154Z,11.2
2023-05-19T06:35:07.959Z,12
2023-05-19T06:36:10.565Z,12.9
2023-05-19T06:37:13.144Z,13.8
2023-05-19T06:38:15.678Z,14.5
2023-05-19T06:39:18.320Z,15
2023-05-19T06:40:20.827Z,15.4
2023-05-19T06:41:23.311Z,15.6
2023-05-19T06:42:25.804Z,15.7
2023-05-19T06:43:28.266Z,15.7
2023-05-19T06:44:30.800Z,15.7
2023-05-19T06:45:33.250Z,15.7
2023-05-19T06:46:35.989Z,15.7
2023-05-19T06:47:38.622Z,15.6
2023-05-19T06:48:41.155Z,15.5
2023-05-19T06:49:43.636Z,15.4
2023-05-19T06:50:46.067Z,15.3
2023-05-19T06:51:48.583Z,15.2
2023-05-19T06:52:51.041Z,15.1
2023-05-19T06:53:53.520Z,15
2023-05-19T06:54:56.041Z,14.9
2023-05-19T06:55:59.641Z,14.9
2023-05-19T06:57:02.801Z,14.8
2023-05-19T06:58:05.243Z,14.7
2023-05-19T06:59:07.807Z,14.6
2023-05-19T07:00:10.277Z,14.5
2023-05-19T07:01:12.737Z,14.5
2023-05-19T07:02:15.308Z,14.4
2023-05-19T07:03:18.052Z,14.3
2023-05-19T07:04:20.915Z,14.3
2023-05-19T07:05:23.336Z,14.2
2023-05-19T07:06:25.865Z,14.2
2023-05-19T07:07:28.365Z,14.2
2023-05-19T07:08:30.873Z,14.1
2023-05-19T07:09:33.329Z,14.1
2023-05-19T07:10:35.790Z,14.1
2023-05-19T07:11:38.267Z,14
2023-05-19T07:12:40.744Z,13.9
2023-05-19T07:13:43.304Z,13.9
2023-05-19T07:14:45.799Z,13.8
2023-05-19T07:15:48.277Z,13.8
2023-05-19T07:16:50.861Z,13.8
2023-05-19T07:17:53.591Z,13.7
2023-05-19T07:18:56.260Z,13.7
2023-05-19T07:19:58.869Z,13.6
2023-05-19T07:21:01.375Z,13.6
2023-05-19T07:22:03.841Z,13.6
2023-05-19T07:23:06.335Z,13.6
2023-05-19T07:24:08.802Z,13.6
2023-05-19T07:25:11.294Z,13.6
2023-05-19T07:26:13.831Z,13.6
2023-05-19T07:27:16.285Z,13.6
2023-05-19T07:28:18.765Z,13.7
2023-05-19T07:29:21.230Z,13.7
2023-05-19T07:30:25.326Z,13.7
2023-05-19T07:31:27.767Z,13.8
2023-05-19T07:32:30.418Z,13.9
2023-05-19T07:33:33.018Z,14
2023-05-19T07:34:35.571Z,14.1
2023-05-19T07:35:38.031Z,14.1
2023-05-19T07:36:40.493Z,14.1
2023-05-19T07:37:42.913Z,14.1
2023-05-19T07:38:45.400Z,14
2023-05-19T07:39:47.858Z,14
2023-05-19T07:40:50.317Z,14
2023-05-19T07:41:52.794Z,13.9
2023-05-19T07:42:55.250Z,13.9
2023-05-19T07:43:57.949Z,13.8
2023-05-19T07:45:00.379Z,13.8
2023-05-19T07:46:02.980Z,13.8
2023-05-19T07:47:05.550Z,13.8
2023-05-19T07:48:08.081Z,13.7
2023-05-19T07:49:10.768Z,13.8
2023-05-19T07:50:13.230Z,13.8
2023-05-19T07:51:15.715Z,13.7
2023-05-19T07:52:18.212Z,13.8
2023-05-19T07:53:20.641Z,13.8
2023-05-19T07:54:23.101Z,13.8
2023-05-19T07:55:25.618Z,13.8
2023-05-19T07:56:28.076Z,13.8
2023-05-19T07:57:30.503Z,13.8
2023-05-19T07:58:32.988Z,13.8
2023-05-19T07:59:35.422Z,13.7
2023-05-19T08:00:37.848Z,13.7
2023-05-19T08:01:40.316Z,13.7
2023-05-19T08:02:42.856Z,13.7
2023-05-19T08:03:47.149Z,13.6
2023-05-19T08:04:50.149Z,13.6
2023-05-19T08:05:52.925Z,13.6
2023-05-19T08:06:55.414Z,13.6
2023-05-19T08:07:57.806Z,13.6
2023-05-19T08:09:00.328Z,13.6
2023-05-19T08:10:02.775Z,13.6
2023-05-19T08:11:05.222Z,13.7
2023-05-19T08:12:07.769Z,13.7
2023-05-19T08:13:10.222Z,13.7
2023-05-19T08:14:12.673Z,13.7
2023-05-19T08:15:15.172Z,13.7
2023-05-19T08:16:17.801Z,13.7
2023-05-19T08:17:20.449Z,13.7
2023-05-19T08:18:22.939Z,13.7
2023-05-19T08:19:25.410Z,13.7
2023-05-19T08:20:28.107Z,13.7
2023-05-19T08:21:30.641Z,13.8
2023-05-19T08:22:33.083Z,13.8
2023-05-19T08:23:35.501Z,13.9
2023-05-19T08:24:37.989Z,14
2023-05-19T08:25:40.466Z,14
2023-05-19T08:26:42.936Z,14.1
2023-05-19T08:27:45.411Z,14.2
2023-05-19T08:28:47.888Z,14.2
2023-05-19T08:29:50.391Z,14.3
2023-05-19T08:30:52.839Z,14.3
2023-05-19T08:31:55.317Z,14.3
2023-05-19T08:32:58.157Z,14.3
2023-05-19T08:34:00.745Z,14.3
2023-05-19T08:35:03.182Z,14.3
2023-05-19T08:36:07.165Z,14.3
2023-05-19T08:37:09.575Z,14.3
2023-05-19T08:38:11.989Z,14.2
2023-05-19T08:39:14.398Z,14.2
2023-05-19T08:40:16.920Z,14.2
2023-05-19T08:41:19.428Z,14.1
2023-05-19T08:42:21.882Z,14.1
2023-05-19T08:43:24.371Z,14.1
2023-05-19T08:44:26.807Z,14.1
2023-05-19T08:45:29.237Z,14.1
2023-05-19T08:46:31.743Z,14.1
2023-05-19T08:47:34.303Z,14
2023-05-19T08:48:36.839Z,14
2023-05-19T08:49:39.301Z,14
2023-05-19T08:50:41.764Z,14
2023-05-19T08:51:44.273Z,14
2023-05-19T08:52:49.600Z,14
2023-05-19T08:53:55.581Z,14
2023-05-19T08:54:58.030Z,14
2023-05-19T08:56:00.486Z,14.1
2023-05-19T08:57:03.056Z,14.1
2023-05-19T08:58:05.555Z,14.1
2023-05-19T08:59:08.005Z,14.2
2023-05-19T09:00:10.492Z,14.2
2023-05-19T09:01:12.985Z,14.3
2023-05-19T09:02:15.874Z,14.3
2023-05-19T09:04:27.103Z,14.4
2023-05-19T09:05:32.702Z,14.4
2023-05-19T09:06:36.120Z,14.5
2023-05-19T09:07:38.671Z,14.5
2023-05-19T09:08:41.160Z,14.5
2023-05-19T09:09:43.714Z,14.5
2023-05-19T09:10:46.432Z,14.5
2023-05-19T09:11:48.918Z,14.6
2023-05-19T09:12:51.406Z,14.6
2023-05-19T09:13:53.941Z,14.7
2023-05-19T09:14:58.184Z,14.7
2023-05-19T09:16:00.648Z,14.8
2023-05-19T09:17:03.184Z,14.8
2023-05-19T09:18:06.096Z,14.8
2023-05-19T09:19:08.800Z,14.8
2023-05-19T09:20:11.417Z,14.9
2023-05-19T09:21:13.854Z,14.9
2023-05-19T09:22:17.790Z,14.9
2023-05-19T09:23:20.216Z,14.9
2023-05-19T09:24:22.720Z,15
2023-05-19T09:25:25.257Z,15
2023-05-19T09:26:27.738Z,15
2023-05-19T09:27:30.257Z,15.1
2023-05-19T09:28:32.750Z,15.1
2023-05-19T09:29:35.251Z,15.1
2023-05-19T09:30:37.757Z,15.2
2023-05-19T09:31:40.246Z,15.2
2023-05-19T09:32:43.606Z,15.3
2023-05-19T09:33:46.448Z,15.3
2023-05-19T09:34:48.900Z,15.3
2023-05-19T09:35:51.378Z,15.3
2023-05-19T09:36:54.031Z,15.4
2023-05-19T09:37:56.660Z,15.4
2023-05-19T09:38:59.126Z,15.4
2023-05-19T09:40:01.657Z,15.4
2023-05-19T09:41:04.165Z,15.5
2023-05-19T09:42:06.695Z,15.5
2023-05-19T09:43:09.130Z,15.5
2023-05-19T09:44:11.598Z,15.5
2023-05-19T09:45:14.091Z,15.5
2023-05-19T09:46:16.653Z,15.5
2023-05-19T09:47:19.224Z,15.6
2023-05-19T09:48:21.713Z,15.6
2023-05-19T09:49:24.201Z,15.6
2023-05-19T09:50:26.674Z,15.6
2023-05-19T09:51:29.223Z,15.6
2023-05-19T09:52:31.660Z,15.6
2023-05-19T09:53:34.406Z,15.5
2023-05-19T09:54:37.013Z,15.4
2023-05-19T09:55:39.557Z,15.3
2023-05-19T09:56:42.034Z,15.3
2023-05-19T09:57:44.487Z,15.2
2023-05-19T09:58:47.119Z,15.1
2023-05-19T09:59:49.613Z,15
2023-05-19T10:00:52.127Z,15
2023-05-19T10:01:54.698Z,15
2023-05-19T10:02:57.261Z,14.9
2023-05-19T10:03:59.916Z,14.9
2023-05-19T10:05:02.544Z,14.8
2023-05-19T10:06:05.204Z,14.8
2023-05-19T10:07:07.804Z,14.8
2023-05-19T10:08:10.338Z,14.8
2023-05-19T10:09:12.892Z,14.9
2023-05-19T10:10:15.430Z,14.9
2023-05-19T10:11:18.014Z,15
2023-05-19T10:12:20.527Z,15.2
2023-05-19T10:13:23.051Z,15.3
2023-05-19T10:14:25.502Z,15.4
2023-05-19T10:15:28.067Z,15.4
2023-05-19T10:16:30.563Z,15.5
2023-05-19T10:17:33.255Z,15.5
2023-05-19T10:18:36.853Z,15.6
2023-05-19T10:19:42.285Z,15.6
2023-05-19T10:20:44.721Z,15.6
2023-05-19T10:21:47.190Z,15.6
2023-05-19T10:22:49.636Z,15.6
2023-05-19T10:23:52.114Z,15.5
2023-05-19T10:24:54.588Z,15.5
2023-05-19T10:25:57.069Z,15.4
2023-05-19T10:26:59.677Z,15.4
2023-05-19T10:28:02.166Z,15.3
2023-05-19T10:29:04.609Z,15.3
2023-05-19T10:30:08.803Z,15.3
2023-05-19T10:31:16.162Z,15.2
2023-05-19T10:32:18.643Z,15.2
2023-05-19T10:33:21.216Z,15.3
2023-05-19T10:34:23.889Z,15.2
2023-05-19T10:35:26.353Z,15.2
2023-05-19T10:36:28.842Z,15.3
2023-05-19T10:37:31.341Z,15.2
2023-05-19T10:38:33.960Z,15.3
2023-05-19T10:39:36.584Z,15.3
2023-05-19T10:40:39.088Z,15.3
2023-05-19T10:41:41.768Z,15.3
2023-05-19T10:42:44.391Z,15.3
2023-05-19T10:43:46.920Z,15.3
2023-05-19T10:44:49.439Z,15.3
2023-05-19T10:45:51.894Z,15.3
2023-05-19T10:46:56.676Z,15.3
2023-05-19T10:47:59.529Z,15.3
2023-05-19T10:49:02.093Z,15.3
2023-05-19T10:50:04.554Z,15.3
2023-05-19T10:51:07.053Z,15.3
2023-05-19T10:52:09.619Z,15.3
2023-05-19T10:53:12.230Z,15.3
2023-05-19T10:54:14.712Z,15.4
2023-05-19T10:55:17.228Z,15.4
2023-05-19T10:56:19.812Z,15.4
2023-05-19T10:57:22.402Z,15.4
2023-05-19T10:58:24.949Z,15.4
2023-05-19T10:59:27.913Z,15.4
2023-05-19T11:00:31.858Z,15.4
2023-05-19T11:01:34.465Z,15.4
2023-05-19T11:02:37.166Z,15.4
2023-05-19T11:03:39.982Z,15.4
2023-05-19T11:04:45.327Z,15.4
2023-05-19T11:05:47.765Z,15.4
2023-05-19T11:06:50.263Z,15.4
2023-05-19T11:07:52.677Z,15.3
2023-05-19T11:08:55.127Z,15.3
2023-05-19T11:09:57.612Z,15.3
2023-05-19T11:11:00.071Z,15.3
2023-05-19T11:12:02.710Z,15.3
2023-05-19T11:13:06.409Z,15.4
2023-05-19T11:14:09.176Z,15.4
2023-05-19T11:15:11.633Z,15.5
2023-05-19T11:16:14.227Z,15.5
2023-05-19T11:17:16.790Z,15.6
2023-05-19T11:18:19.351Z,15.7
2023-05-19T11:19:21.907Z,15.7
2023-05-19T11:20:24.752Z,15.8
2023-05-19T11:21:27.239Z,15.9
2023-05-19T11:22:29.965Z,15.9
2023-05-19T11:23:33.461Z,15.9
2023-05-19T11:24:37.998Z,16
2023-05-19T11:25:40.690Z,16
2023-05-19T11:26:43.147Z,16.1
2023-05-19T11:27:45.652Z,16.1
2023-05-19T11:28:48.109Z,16.2
2023-05-19T11:29:50.688Z,16.2
2023-05-19T11:30:53.149Z,16.2
2023-05-19T11:31:55.697Z,16.3
2023-05-19T11:32:58.298Z,16.3
2023-05-19T11:34:00.925Z,16.3
2023-05-19T11:35:03.376Z,16.4
2023-05-19T11:36:06.175Z,16.4
2023-05-19T11:37:08.632Z,16.4
2023-05-19T11:38:11.110Z,16.4
2023-05-19T11:39:13.634Z,16.4
2023-05-19T11:40:16.085Z,16.4
2023-05-19T11:41:20.185Z,16.5
2023-05-19T11:42:23.162Z,16.5
2023-05-19T11:43:25.762Z,16.5
2023-05-19T11:44:28.558Z,16.6
2023-05-19T11:45:31.347Z,16.6
2023-05-19T11:46:36.050Z,16.7
2023-05-19T11:47:47.368Z,16.7
2023-05-19T11:49:06.041Z,16.7
2023-05-19T11:50:08.346Z,16.7
2023-05-19T11:51:10.776Z,16.7
2023-05-19T11:52:13.257Z,16.7
2023-05-19T11:53:15.704Z,16.7
2023-05-19T11:54:18.165Z,16.7
2023-05-19T11:55:20.611Z,16.8
2023-05-19T11:56:23.203Z,16.8
2023-05-19T11:57:25.777Z,16.9
2023-05-19T11:58:28.268Z,16.9
2023-05-19T11:59:31.140Z,16.9
2023-05-19T12:00:38.087Z,17
2023-05-19T12:01:40.633Z,17
2023-05-19T12:02:43.136Z,17
2023-05-19T12:03:45.895Z,16.9
2023-05-19T12:04:49.025Z,16.9
2023-05-19T12:05:51.960Z,16.9
2023-05-19T12:06:54.883Z,16.8
2023-05-19T12:07:57.327Z,16.8
2023-05-19T12:08:59.847Z,16.7
2023-05-19T12:10:02.317Z,16.7
2023-05-19T12:11:04.865Z,16.6
2023-05-19T12:12:07.345Z,16.5
2023-05-19T12:13:10.261Z,16.5
2023-05-19T12:14:13.415Z,16.4
2023-05-19T12:15:16.015Z,16.4
2023-05-19T12:16:18.628Z,16.3
2023-05-19T12:17:21.292Z,16.3
2023-05-19T12:18:23.772Z,16.3
2023-05-19T12:19:26.386Z,16.3
2023-05-19T12:20:29.003Z,16.3
2023-05-19T12:21:33.768Z,16.3
2023-05-19T12:22:36.735Z,16.2
2023-05-19T12:23:39.265Z,16.2
2023-05-19T12:24:41.726Z,16.2
2023-05-19T12:25:44.365Z,16.2
2023-05-19T12:26:46.864Z,16.2
2023-05-19T12:27:49.312Z,16.2
2023-05-19T12:28:51.812Z,16.2
2023-05-19T12:29:54.303Z,16.2
2023-05-19T12:30:56.871Z,16.2
2023-05-19T12:31:59.476Z,16.2
2023-05-19T12:33:02.066Z,16.3
2023-05-19T12:34:05.051Z,16.3
2023-05-19T12:35:07.569Z,16.3
2023-05-19T12:36:10.057Z,16.4
2023-05-19T12:37:13.083Z,16.5
2023-05-19T12:38:15.509Z,16.5
2023-05-19T12:39:19.468Z,16.6
2023-05-19T12:40:23.797Z,16.7
2023-05-19T12:41:26.255Z,16.7
2023-05-19T12:42:28.708Z,16.7
2023-05-19T12:43:31.219Z,16.7
2023-05-19T12:44:33.736Z,16.7
2023-05-19T12:45:36.359Z,16.7
2023-05-19T12:46:39.220Z,16.8
2023-05-19T12:47:41.908Z,16.8
2023-05-19T12:48:44.557Z,16.7
2023-05-19T12:49:47.021Z,16.8
2023-05-19T12:50:50.222Z,16.8
2023-05-19T12:51:52.720Z,16.9
2023-05-19T12:52:55.198Z,16.9
2023-05-19T12:53:57.669Z,16.9
2023-05-19T12:55:00.157Z,16.9
2023-05-19T12:56:02.778Z,16.8
2023-05-19T12:57:05.404Z,16.8
2023-05-19T12:58:09.664Z,16.7
2023-05-19T12:59:12.117Z,16.7
2023-05-19T13:00:15.059Z,16.7
2023-05-19T13:01:17.952Z,16.6
2023-05-19T13:02:21.004Z,16.6
2023-05-19T13:03:23.962Z,16.7
2023-05-19T13:04:26.818Z,16.6
2023-05-19T13:05:29.295Z,16.6
2023-05-19T13:06:31.877Z,16.6
2023-05-19T13:07:34.343Z,16.6
2023-05-19T13:08:36.829Z,16.6
2023-05-19T13:09:39.388Z,16.6
2023-05-19T13:10:41.886Z,16.6
2023-05-19T13:11:44.380Z,16.6
2023-05-19T13:12:46.865Z,16.5
2023-05-19T13:13:49.360Z,16.5
2023-05-19T13:14:53.480Z,16.5
2023-05-19T13:15:57.922Z,16.5
2023-05-19T13:17:00.420Z,16.4
2023-05-19T13:18:03.111Z,16.4
2023-05-19T13:19:06.385Z,16.3
2023-05-19T13:20:09.120Z,16.2
2023-05-19T13:21:11.599Z,16.2
2023-05-19T13:22:14.087Z,16.1
2023-05-19T13:23:16.537Z,16
2023-05-19T13:24:19.084Z,16
2023-05-19T13:25:21.681Z,16
2023-05-19T13:26:24.160Z,16
2023-05-19T13:27:26.604Z,15.9
2023-05-19T13:28:29.107Z,15.9
2023-05-19T13:29:31.578Z,15.9
2023-05-19T13:30:34.473Z,15.8
2023-05-19T13:31:38.344Z,15.8
2023-05-19T13:32:41.239Z,15.8
2023-05-19T13:33:43.834Z,15.7
2023-05-19T13:34:46.401Z,15.7
2023-05-19T13:35:48.861Z,15.7
2023-05-19T13:36:51.377Z,15.7
2023-05-19T13:37:53.918Z,15.7
2023-05-19T13:38:56.449Z,15.6
2023-05-19T13:39:58.972Z,15.6
2023-05-19T13:41:01.450Z,15.6
2023-05-19T13:42:04.073Z,15.6
2023-05-19T13:43:06.524Z,15.6
2023-05-19T13:44:09.112Z,15.6
2023-05-19T13:45:11.598Z,15.6
2023-05-19T13:46:14.102Z,15.6
2023-05-19T13:47:16.790Z,15.6
2023-05-19T13:48:19.479Z,15.6
2023-05-19T13:49:22.259Z,15.7
2023-05-19T13:50:24.813Z,15.7
2023-05-19T13:51:27.458Z,15.7
2023-05-19T13:52:30.538Z,15.7
2023-05-19T13:53:33.074Z,15.7
2023-05-19T13:54:35.509Z,15.8
2023-05-19T13:55:37.978Z,15.8
2023-05-19T13:56:40.468Z,15.8
2023-05-19T13:57:44.085Z,15.8
2023-05-19T13:58:46.598Z,15.8